sensor_id;sensor_type;location;lat;lon;timestamp;pressure;altitude;pressure_sealevel;temperature;humidity
70954;BME280;58618;47.490;8.736;2024-02-21T00:00:12;97583.16;;;1.56;100.00
70954;BME280;58618;47.490;8.736;2024-02-21T00:03:01;97575.91;;;1.53;100.00
70954;BME280;58618;47.490;8.736;2024-02-21T00:05:50;97576.66;;;1.47;100.00
70954;BME280;58618;47.490;8.736;2024-02-21T00:08:37;97571.56;;;1.47;100.00
70954;BME280;58618;47.490;8.736;2024-02-21T00:11:25;97575.88;;;1.47;100.00
70954;BME280;58618;47.490;8.736;2024-02-21T00:14:12;97561.38;;;1.41;100.00
70954;BME280;58618;47.490;8.736;2024-02-21T00:16:59;97565.25;;;1.37;100.00
70954;BME280;58618;47.490;8.736;2024-02-21T00:19:48;97564.88;;;1.40;100.00
70954;BME280;58618;47.490;8.736;2024-02-21T00:22:35;97566.50;;;1.54;100.00
70954;BME280;58618;47.490;8.736;2024-02-21T00:25:23;97570.41;;;1.50;100.00
70954;BME280;58618;47.490;8.736;2024-02-21T00:28:10;97568.66;;;1.50;100.00
70954;BME280;58618;47.490;8.736;2024-02-21T00:30:58;97560.97;;;1.37;100.00
70954;BME280;58618;47.490;8.736;2024-02-21T00:33:45;97551.13;;;1.27;100.00
70954;BME280;58618;47.490;8.736;2024-02-21T00:36:33;97556.19;;;1.27;100.00
70954;BME280;58618;47.490;8.736;2024-02-21T00:39:21;97549.19;;;1.30;100.00
70954;BME280;58618;47.490;8.736;2024-02-21T00:42:08;97541.41;;;1.38;100.00
70954;BME280;58618;47.490;8.736;2024-02-21T00:44:55;97540.94;;;1.27;100.00
70954;BME280;58618;47.490;8.736;2024-02-21T00:47:42;97540.72;;;1.22;100.00
70954;BME280;58618;47.490;8.736;2024-02-21T00:50:30;97543.53;;;1.34;100.00
70954;BME280;58618;47.490;8.736;2024-02-21T00:53:18;97538.50;;;1.41;100.00
70954;BME280;58618;47.490;8.736;2024-02-21T00:56:06;97535.13;;;1.34;100.00
70954;BME280;58618;47.490;8.736;2024-02-21T00:58:53;97517.41;;;1.12;100.00
70954;BME280;58618;47.490;8.736;2024-02-21T01:01:40;97517.91;;;1.29;100.00
70954;BME280;58618;47.490;8.736;2024-02-21T01:04:28;97520.31;;;1.44;100.00
70954;BME280;58618;47.490;8.736;2024-02-21T01:07:16;97529.34;;;1.46;100.00
70954;BME280;58618;47.490;8.736;2024-02-21T01:10:06;97526.75;;;1.40;100.00
70954;BME280;58618;47.490;8.736;2024-02-21T01:12:53;97525.78;;;1.41;100.00
70954;BME280;58618;47.490;8.736;2024-02-21T01:15:41;97532.06;;;1.45;100.00
70954;BME280;58618;47.490;8.736;2024-02-21T01:18:28;97531.66;;;1.41;100.00
70954;BME280;58618;47.490;8.736;2024-02-21T01:21:15;97530.47;;;1.44;100.00
70954;BME280;58618;47.490;8.736;2024-02-21T01:24:03;97532.06;;;1.45;100.00
70954;BME280;58618;47.490;8.736;2024-02-21T01:26:52;97536.81;;;1.61;100.00
70954;BME280;58618;47.490;8.736;2024-02-21T01:29:39;97531.50;;;1.56;100.00
70954;BME280;58618;47.490;8.736;2024-02-21T01:32:27;97532.91;;;1.65;100.00
70954;BME280;58618;47.490;8.736;2024-02-21T01:35:14;97533.72;;;1.72;100.00
70954;BME280;58618;47.490;8.736;2024-02-21T01:38:02;97525.69;;;1.62;100.00
70954;BME280;58618;47.490;8.736;2024-02-21T01:40:50;97520.38;;;1.57;100.00
70954;BME280;58618;47.490;8.736;2024-02-21T01:43:39;97518.78;;;1.49;100.00
70954;BME280;58618;47.490;8.736;2024-02-21T01:46:26;97516.00;;;1.44;100.00
70954;BME280;58618;47.490;8.736;2024-02-21T01:49:14;97510.13;;;1.37;100.00
70954;BME280;58618;47.490;8.736;2024-02-21T01:52:02;97511.94;;;1.50;100.00
70954;BME280;58618;47.490;8.736;2024-02-21T01:54:50;97509.06;;;1.66;100.00
70954;BME280;58618;47.490;8.736;2024-02-21T01:57:37;97490.09;;;1.68;100.00
70954;BME280;58618;47.490;8.736;2024-02-21T02:00:26;97484.78;;;1.57;100.00
70954;BME280;58618;47.490;8.736;2024-02-21T02:03:14;97484.00;;;1.56;100.00
70954;BME280;58618;47.490;8.736;2024-02-21T02:06:04;97484.41;;;1.60;100.00
70954;BME280;58618;47.490;8.736;2024-02-21T02:08:52;97470.91;;;1.53;100.00
70954;BME280;58618;47.490;8.736;2024-02-21T02:11:40;97471.72;;;1.73;100.00
70954;BME280;58618;47.490;8.736;2024-02-21T02:14:29;97472.72;;;1.92;100.00
70954;BME280;58618;47.490;8.736;2024-02-21T02:17:17;97467.63;;;1.85;100.00
70954;BME280;58618;47.490;8.736;2024-02-21T02:20:06;97466.09;;;1.84;100.00
70954;BME280;58618;47.490;8.736;2024-02-21T02:22:54;97467.25;;;1.82;100.00
70954;BME280;58618;47.490;8.736;2024-02-21T02:25:43;97471.16;;;1.84;100.00
70954;BME280;58618;47.490;8.736;2024-02-21T02:28:31;97464.50;;;1.83;100.00
70954;BME280;58618;47.490;8.736;2024-02-21T02:31:19;97446.50;;;1.78;100.00
70954;BME280;58618;47.490;8.736;2024-02-21T02:34:06;97447.50;;;1.84;100.00
70954;BME280;58618;47.490;8.736;2024-02-21T02:36:53;97434.00;;;1.83;100.00
70954;BME280;58618;47.490;8.736;2024-02-21T02:39:40;97428.09;;;1.69;100.00
70954;BME280;58618;47.490;8.736;2024-02-21T02:42:29;97428.47;;;1.60;100.00
70954;BME280;58618;47.490;8.736;2024-02-21T02:45:16;97422.25;;;1.82;100.00
70954;BME280;58618;47.490;8.736;2024-02-21T02:48:05;97421.84;;;1.92;100.00
70954;BME280;58618;47.490;8.736;2024-02-21T02:50:52;97417.19;;;1.95;100.00
70954;BME280;58618;47.490;8.736;2024-02-21T02:53:39;97424.22;;;2.13;100.00
70954;BME280;58618;47.490;8.736;2024-02-21T02:56:26;97413.25;;;2.12;100.00
70954;BME280;58618;47.490;8.736;2024-02-21T02:59:15;97416.00;;;2.04;100.00
70954;BME280;58618;47.490;8.736;2024-02-21T03:02:03;97405.81;;;1.98;100.00
70954;BME280;58618;47.490;8.736;2024-02-21T03:04:50;97392.53;;;1.89;100.00
70954;BME280;58618;47.490;8.736;2024-02-21T03:07:37;97391.34;;;1.98;100.00
70954;BME280;58618;47.490;8.736;2024-02-21T03:10:25;97388.59;;;2.06;100.00
70954;BME280;58618;47.490;8.736;2024-02-21T03:13:12;97384.28;;;2.27;100.00
70954;BME280;58618;47.490;8.736;2024-02-21T03:16:01;97380.38;;;2.31;100.00
70954;BME280;58618;47.490;8.736;2024-02-21T03:18:48;97376.84;;;2.32;100.00
70954;BME280;58618;47.490;8.736;2024-02-21T03:21:35;97373.91;;;2.22;100.00
70954;BME280;58618;47.490;8.736;2024-02-21T03:24:23;97361.97;;;2.22;100.00
70954;BME280;58618;47.490;8.736;2024-02-21T03:27:10;97355.69;;;2.25;100.00
70954;BME280;58618;47.490;8.736;2024-02-21T03:29:57;97349.03;;;2.17;100.00
70954;BME280;58618;47.490;8.736;2024-02-21T03:32:46;97347.50;;;2.16;100.00
70954;BME280;58618;47.490;8.736;2024-02-21T03:35:33;97345.53;;;2.11;100.00
70954;BME280;58618;47.490;8.736;2024-02-21T03:38:21;97339.88;;;2.16;100.00
70954;BME280;58618;47.490;8.736;2024-02-21T03:41:08;97337.69;;;2.26;100.00
70954;BME280;58618;47.490;8.736;2024-02-21T03:43:55;97332.59;;;2.20;100.00
70954;BME280;58618;47.490;8.736;2024-02-21T03:46:43;97325.56;;;2.22;100.00
70954;BME280;58618;47.490;8.736;2024-02-21T03:49:32;97322.44;;;2.20;100.00
70954;BME280;58618;47.490;8.736;2024-02-21T03:52:19;97321.25;;;2.22;100.00
70954;BME280;58618;47.490;8.736;2024-02-21T03:55:07;97316.72;;;2.31;100.00
70954;BME280;58618;47.490;8.736;2024-02-21T03:57:54;97308.69;;;2.34;100.00
70954;BME280;58618;47.490;8.736;2024-02-21T04:00:42;97309.66;;;2.33;100.00
70954;BME280;58618;47.490;8.736;2024-02-21T04:03:30;97302.34;;;2.56;100.00
70954;BME280;58618;47.490;8.736;2024-02-21T04:06:19;97266.03;;;2.23;100.00
70954;BME280;58618;47.490;8.736;2024-02-21T04:09:06;97292.97;;;2.50;100.00
70954;BME280;58618;47.490;8.736;2024-02-21T04:11:53;97291.41;;;2.49;100.00
70954;BME280;58618;47.490;8.736;2024-02-21T04:14:41;97283.22;;;2.40;100.00
70954;BME280;58618;47.490;8.736;2024-02-21T04:17:28;97284.03;;;2.34;100.00
70954;BME280;58618;47.490;8.736;2024-02-21T04:20:16;97290.69;;;2.29;100.00
70954;BME280;58618;47.490;8.736;2024-02-21T04:23:05;97290.69;;;2.29;100.00
70954;BME280;58618;47.490;8.736;2024-02-21T04:25:52;97279.75;;;2.22;100.00
70954;BME280;58618;47.490;8.736;2024-02-21T04:28:39;97289.91;;;2.28;100.00
70954;BME280;58618;47.490;8.736;2024-02-21T04:31:27;97294.63;;;2.31;100.00
70954;BME280;58618;47.490;8.736;2024-02-21T04:34:14;97289.34;;;2.26;100.00
70954;BME280;58618;47.490;8.736;2024-02-21T04:37:02;97288.38;;;2.21;100.00
70954;BME280;58618;47.490;8.736;2024-02-21T04:39:51;97290.69;;;2.29;100.00
70954;BME280;58618;47.490;8.736;2024-02-21T04:42:38;97296.75;;;2.28;100.00
70954;BME280;58618;47.490;8.736;2024-02-21T04:45:26;97297.97;;;2.19;100.00
70954;BME280;58618;47.490;8.736;2024-02-21T04:48:13;97300.88;;;2.29;100.00
70954;BME280;58618;47.490;8.736;2024-02-21T04:51:00;97302.63;;;2.28;100.00
70954;BME280;58618;47.490;8.736;2024-02-21T04:53:48;97300.69;;;2.17;100.00
70954;BME280;58618;47.490;8.736;2024-02-21T04:56:36;97298.75;;;2.26;100.00
70954;BME280;58618;47.490;8.736;2024-02-21T04:59:24;97296.56;;;2.23;100.00
70954;BME280;58618;47.490;8.736;2024-02-21T05:02:11;97272.75;;;2.10;100.00
70954;BME280;58618;47.490;8.736;2024-02-21T05:04:58;97272.38;;;1.87;100.00
70954;BME280;58618;47.490;8.736;2024-02-21T05:07:46;97266.50;;;1.93;100.00
70954;BME280;58618;47.490;8.736;2024-02-21T05:10:33;97256.53;;;1.98;100.00
70954;BME280;58618;47.490;8.736;2024-02-21T05:13:22;97255.53;;;1.99;100.00
70954;BME280;58618;47.490;8.736;2024-02-21T05:16:09;97235.63;;;1.83;100.00
70954;BME280;58618;47.490;8.736;2024-02-21T05:18:57;97254.19;;;1.90;100.00
70954;BME280;58618;47.490;8.736;2024-02-21T05:21:44;97247.34;;;1.84;100.00
70954;BME280;58618;47.490;8.736;2024-02-21T05:24:32;97259.47;;;1.82;100.00
70954;BME280;58618;47.490;8.736;2024-02-21T05:27:19;97253.22;;;1.85;100.00
70954;BME280;58618;47.490;8.736;2024-02-21T05:30:09;97245.78;;;1.83;100.00
70954;BME280;58618;47.490;8.736;2024-02-21T05:32:56;97239.13;;;1.95;100.00
70954;BME280;58618;47.490;8.736;2024-02-21T05:35:43;97237.50;;;2.07;100.00
70954;BME280;58618;47.490;8.736;2024-02-21T05:38:31;97246.09;;;2.20;100.00
70954;BME280;58618;47.490;8.736;2024-02-21T05:41:18;97244.56;;;2.05;100.00
70954;BME280;58618;47.490;8.736;2024-02-21T05:44:05;97250.84;;;1.96;100.00
70954;BME280;58618;47.490;8.736;2024-02-21T05:46:54;97260.03;;;2.10;100.00
70954;BME280;58618;47.490;8.736;2024-02-21T05:49:41;97258.81;;;2.20;100.00
70954;BME280;58618;47.490;8.736;2024-02-21T05:52:29;97254.75;;;2.05;100.00
70954;BME280;58618;47.490;8.736;2024-02-21T05:55:16;97247.91;;;1.86;100.00
70954;BME280;58618;47.490;8.736;2024-02-21T05:58:04;97242.66;;;1.81;100.00
70954;BME280;58618;47.490;8.736;2024-02-21T06:00:51;97236.19;;;1.92;100.00
70954;BME280;58618;47.490;8.736;2024-02-21T06:03:41;97230.09;;;1.99;100.00
70954;BME280;58618;47.490;8.736;2024-02-21T06:06:29;97227.75;;;1.91;100.00
70954;BME280;58618;47.490;8.736;2024-02-21T06:09:16;97214.66;;;2.01;100.00
70954;BME280;58618;47.490;8.736;2024-02-21T06:12:04;97208.19;;;1.98;100.00
70954;BME280;58618;47.490;8.736;2024-02-21T06:14:52;97204.31;;;1.76;100.00
70954;BME280;58618;47.490;8.736;2024-02-21T06:17:39;97205.88;;;1.77;100.00
70954;BME280;58618;47.490;8.736;2024-02-21T06:20:28;97187.53;;;1.62;100.00
70954;BME280;58618;47.490;8.736;2024-02-21T06:23:16;97199.66;;;1.73;100.00
70954;BME280;58618;47.490;8.736;2024-02-21T06:26:03;97198.50;;;1.69;100.00
70954;BME280;58618;47.490;8.736;2024-02-21T06:28:51;97210.00;;;1.72;100.00
70954;BME280;58618;47.490;8.736;2024-02-21T06:31:38;97206.84;;;1.83;100.00
70954;BME280;58618;47.490;8.736;2024-02-21T06:34:25;97212.28;;;1.99;100.00
70954;BME280;58618;47.490;8.736;2024-02-21T06:37:14;97207.94;;;2.06;100.00
70954;BME280;58618;47.490;8.736;2024-02-21T06:40:02;97209.69;;;2.12;100.00
70954;BME280;58618;47.490;8.736;2024-02-21T06:42:50;97209.31;;;2.09;100.00
70954;BME280;58618;47.490;8.736;2024-02-21T06:45:38;97217.72;;;2.16;100.00
70954;BME280;58618;47.490;8.736;2024-02-21T06:48:25;97203.69;;;2.00;100.00
70954;BME280;58618;47.490;8.736;2024-02-21T06:51:13;97198.78;;;2.05;100.00
70954;BME280;58618;47.490;8.736;2024-02-21T06:54:01;97206.41;;;2.05;100.00
70954;BME280;58618;47.490;8.736;2024-02-21T06:56:49;97203.09;;;2.05;100.00
70954;BME280;58618;47.490;8.736;2024-02-21T06:59:36;97197.22;;;2.04;100.00
70954;BME280;58618;47.490;8.736;2024-02-21T07:02:23;97206.13;;;2.27;100.00
70954;BME280;58618;47.490;8.736;2024-02-21T07:05:11;97202.75;;;2.77;100.00
70954;BME280;58618;47.490;8.736;2024-02-21T07:07:58;97218.56;;;3.60;100.00
70954;BME280;58618;47.490;8.736;2024-02-21T07:10:46;97226.63;;;4.18;100.00
70954;BME280;58618;47.490;8.736;2024-02-21T07:13:34;97230.09;;;4.42;100.00
70954;BME280;58618;47.490;8.736;2024-02-21T07:16:21;97226.63;;;4.66;100.00
70954;BME280;58618;47.490;8.736;2024-02-21T07:19:08;97225.97;;;5.01;100.00
70954;BME280;58618;47.490;8.736;2024-02-21T07:21:56;97226.28;;;5.81;100.00
70954;BME280;58618;47.490;8.736;2024-02-21T07:24:43;97215.44;;;6.25;100.00
70954;BME280;58618;47.490;8.736;2024-02-21T07:27:32;97204.25;;;5.80;100.00
70954;BME280;58618;47.490;8.736;2024-02-21T07:30:19;97201.06;;;6.24;100.00
70954;BME280;58618;47.490;8.736;2024-02-21T07:33:07;97201.69;;;6.88;100.00
70954;BME280;58618;47.490;8.736;2024-02-21T07:35:54;97216.31;;;6.88;100.00
70954;BME280;58618;47.490;8.736;2024-02-21T07:38:41;97214.31;;;6.33;100.00
70954;BME280;58618;47.490;8.736;2024-02-21T07:41:28;97204.56;;;6.75;100.00
70954;BME280;58618;47.490;8.736;2024-02-21T07:44:18;97207.31;;;6.28;100.00
70954;BME280;58618;47.490;8.736;2024-02-21T07:47:05;97205.66;;;6.22;100.00
70954;BME280;58618;47.490;8.736;2024-02-21T07:49:53;97198.91;;;5.70;100.00
70954;BME280;58618;47.490;8.736;2024-02-21T07:52:40;97194.94;;;6.25;100.00
70954;BME280;58618;47.490;8.736;2024-02-21T07:55:28;97200.44;;;6.17;100.00
70954;BME280;58618;47.490;8.736;2024-02-21T07:58:15;97187.25;;;7.49;100.00
70954;BME280;58618;47.490;8.736;2024-02-21T08:01:04;97181.78;;;7.62;100.00
70954;BME280;58618;47.490;8.736;2024-02-21T08:03:51;97167.97;;;8.06;100.00
70954;BME280;58618;47.490;8.736;2024-02-21T08:06:38;97166.41;;;8.05;100.00
70954;BME280;58618;47.490;8.736;2024-02-21T08:09:26;97167.97;;;8.06;100.00
70954;BME280;58618;47.490;8.736;2024-02-21T08:12:13;97161.88;;;8.56;100.00
70954;BME280;58618;47.490;8.736;2024-02-21T08:15:01;97157.59;;;8.67;100.00
70954;BME280;58618;47.490;8.736;2024-02-21T08:17:50;97150.34;;;8.37;100.00
70954;BME280;58618;47.490;8.736;2024-02-21T08:20:38;97161.81;;;8.29;100.00
70954;BME280;58618;47.490;8.736;2024-02-21T08:23:25;97157.13;;;8.48;100.00
70954;BME280;58618;47.490;8.736;2024-02-21T08:26:12;97153.97;;;8.41;100.00
70954;BME280;58618;47.490;8.736;2024-02-21T08:29:00;97157.88;;;8.43;100.00
70954;BME280;58618;47.490;8.736;2024-02-21T08:31:47;97151.88;;;8.92;100.00
70954;BME280;58618;47.490;8.736;2024-02-21T08:34:35;97149.06;;;8.61;100.00
70954;BME280;58618;47.490;8.736;2024-02-21T08:37:23;97150.41;;;9.01;100.00
70954;BME280;58618;47.490;8.736;2024-02-21T08:40:11;97148.56;;;8.64;100.00
70954;BME280;58618;47.490;8.736;2024-02-21T08:42:58;97138.84;;;8.71;100.00
70954;BME280;58618;47.490;8.736;2024-02-21T08:45:45;97139.41;;;8.78;100.00
70954;BME280;58618;47.490;8.736;2024-02-21T08:48:33;97139.13;;;9.44;100.00
70954;BME280;58618;47.490;8.736;2024-02-21T08:51:21;97141.06;;;9.73;100.00
70954;BME280;58618;47.490;8.736;2024-02-21T08:54:09;97139.59;;;9.88;100.00
70954;BME280;58618;47.490;8.736;2024-02-21T08:56:56;97134.69;;;9.86;96.52
70954;BME280;58618;47.490;8.736;2024-02-21T08:59:43;97134.81;;;9.59;100.00
70954;BME280;58618;47.490;8.736;2024-02-21T09:02:31;97127.44;;;9.31;89.93
70954;BME280;58618;47.490;8.736;2024-02-21T09:05:18;97131.34;;;9.86;94.33
70954;BME280;58618;47.490;8.736;2024-02-21T09:08:07;97115.31;;;8.89;88.52
70954;BME280;58618;47.490;8.736;2024-02-21T09:10:54;97120.63;;;9.10;98.42
70954;BME280;58618;47.490;8.736;2024-02-21T09:13:41;97121.84;;;9.39;93.07
70954;BME280;58618;47.490;8.736;2024-02-21T09:16:30;97120.47;;;9.73;89.08
70954;BME280;58618;47.490;8.736;2024-02-21T09:19:17;97120.59;;;10.04;91.63
70954;BME280;58618;47.490;8.736;2024-02-21T09:22:04;97114.25;;;9.69;98.89
70954;BME280;58618;47.490;8.736;2024-02-21T09:24:53;97114.97;;;10.17;87.81
70954;BME280;58618;47.490;8.736;2024-02-21T09:27:40;97103.47;;;9.72;91.04
70954;BME280;58618;47.490;8.736;2024-02-21T09:30:28;97105.09;;;9.94;93.38
70954;BME280;58618;47.490;8.736;2024-02-21T09:33:15;97105.00;;;9.73;96.38
70954;BME280;58618;47.490;8.736;2024-02-21T09:36:03;97109.25;;;9.43;100.00
70954;BME280;58618;47.490;8.736;2024-02-21T09:38:51;97108.03;;;9.55;100.00
70954;BME280;58618;47.490;8.736;2024-02-21T09:41:45;97107.63;;;9.84;95.50
70954;BME280;58618;47.490;8.736;2024-02-21T09:44:37;97106.50;;;9.64;100.00
70954;BME280;58618;47.490;8.736;2024-02-21T09:47:32;97101.94;;;9.71;100.00
70954;BME280;58618;47.490;8.736;2024-02-21T09:50:26;97094.25;;;9.87;96.31
70954;BME280;58618;47.490;8.736;2024-02-21T09:53:14;97098.91;;;10.00;96.74
70954;BME280;58618;47.490;8.736;2024-02-21T09:56:02;97084.22;;;9.95;86.23
70954;BME280;58618;47.490;8.736;2024-02-21T09:58:51;97080.47;;;10.43;89.10
70954;BME280;58618;47.490;8.736;2024-02-21T10:01:39;97071.72;;;10.49;85.83
70954;BME280;58618;47.490;8.736;2024-02-21T10:04:26;97075.84;;;10.71;91.18
70954;BME280;58618;47.490;8.736;2024-02-21T10:07:13;97078.44;;;10.81;84.55
70954;BME280;58618;47.490;8.736;2024-02-21T10:10:01;97078.44;;;10.66;93.09
70954;BME280;58618;47.490;8.736;2024-02-21T10:12:49;97073.94;;;11.32;77.42
70954;BME280;58618;47.490;8.736;2024-02-21T10:15:38;97078.38;;;11.11;85.53
70954;BME280;58618;47.490;8.736;2024-02-21T10:18:25;97066.78;;;11.14;86.76
70954;BME280;58618;47.490;8.736;2024-02-21T10:21:13;97062.31;;;11.44;76.13
70954;BME280;58618;47.490;8.736;2024-02-21T10:24:00;97060.81;;;11.23;78.18
70954;BME280;58618;47.490;8.736;2024-02-21T10:26:47;97061.81;;;11.32;83.48
70954;BME280;58618;47.490;8.736;2024-02-21T10:29:35;97052.59;;;11.06;79.38
70954;BME280;58618;47.490;8.736;2024-02-21T10:32:24;97047.94;;;11.08;83.10
70954;BME280;58618;47.490;8.736;2024-02-21T10:35:12;97042.75;;;11.18;82.89
70954;BME280;58618;47.490;8.736;2024-02-21T10:38:00;97044.75;;;11.47;78.35
70954;BME280;58618;47.490;8.736;2024-02-21T10:40:47;97040.69;;;11.20;74.62
70954;BME280;58618;47.490;8.736;2024-02-21T10:43:40;97027.16;;;11.49;77.25
70954;BME280;58618;47.490;8.736;2024-02-21T10:46:28;97028.69;;;11.55;77.62
70954;BME280;58618;47.490;8.736;2024-02-21T10:49:22;97031.47;;;11.63;80.47
70954;BME280;58618;47.490;8.736;2024-02-21T10:52:14;97028.53;;;11.90;81.10
70954;BME280;58618;47.490;8.736;2024-02-21T10:55:03;97022.94;;;11.78;82.47
70954;BME280;58618;47.490;8.736;2024-02-21T10:57:51;97014.28;;;11.98;78.49
70954;BME280;58618;47.490;8.736;2024-02-21T11:00:39;97010.81;;;12.12;75.63
70954;BME280;58618;47.490;8.736;2024-02-21T11:03:29;97005.63;;;11.63;79.81
70954;BME280;58618;47.490;8.736;2024-02-21T11:06:18;96995.13;;;11.44;80.55
70954;BME280;58618;47.490;8.736;2024-02-21T11:09:08;96992.50;;;11.55;79.29
70954;BME280;58618;47.490;8.736;2024-02-21T11:11:56;96980.56;;;11.64;82.36
70954;BME280;58618;47.490;8.736;2024-02-21T11:14:44;96975.88;;;11.71;80.69
70954;BME280;58618;47.490;8.736;2024-02-21T11:17:32;96972.31;;;11.67;77.39
70954;BME280;58618;47.490;8.736;2024-02-21T11:20:20;96969.28;;;11.50;79.20
70954;BME280;58618;47.490;8.736;2024-02-21T11:23:09;96964.56;;;11.67;78.67
70954;BME280;58618;47.490;8.736;2024-02-21T11:26:07;96950.63;;;11.63;78.98
70954;BME280;58618;47.490;8.736;2024-02-21T11:28:58;96956.84;;;11.57;83.16
70954;BME280;58618;47.490;8.736;2024-02-21T11:31:46;96941.38;;;11.52;81.16
70954;BME280;58618;47.490;8.736;2024-02-21T11:34:34;96934.94;;;11.93;72.41
70954;BME280;58618;47.490;8.736;2024-02-21T11:37:24;96931.97;;;11.71;77.45
70954;BME280;58618;47.490;8.736;2024-02-21T11:40:13;96917.00;;;11.73;77.74
70954;BME280;58618;47.490;8.736;2024-02-21T11:43:01;96920.06;;;11.70;79.20
70954;BME280;58618;47.490;8.736;2024-02-21T11:45:48;96914.72;;;12.00;78.90
70954;BME280;58618;47.490;8.736;2024-02-21T11:48:35;96916.19;;;12.11;78.61
70954;BME280;58618;47.490;8.736;2024-02-21T11:51:25;96904.13;;;12.31;71.92
70954;BME280;58618;47.490;8.736;2024-02-21T11:54:12;96897.31;;;12.40;72.74
70954;BME280;58618;47.490;8.736;2024-02-21T11:57:04;96892.31;;;12.19;77.39
70954;BME280;58618;47.490;8.736;2024-02-21T11:59:51;96881.00;;;12.15;78.55
70954;BME280;58618;47.490;8.736;2024-02-21T12:02:41;96885.06;;;12.21;74.88
70954;BME280;58618;47.490;8.736;2024-02-21T12:05:28;96881.66;;;12.26;74.41
70954;BME280;58618;47.490;8.736;2024-02-21T12:08:16;96878.16;;;12.12;75.27
70954;BME280;58618;47.490;8.736;2024-02-21T12:11:04;96869.97;;;12.05;76.20
70954;BME280;58618;47.490;8.736;2024-02-21T12:14:03;96873.59;;;12.04;76.96
70954;BME280;58618;47.490;8.736;2024-02-21T12:16:55;96863.56;;;11.97;74.89
70954;BME280;58618;47.490;8.736;2024-02-21T12:19:42;96856.28;;;12.28;75.82
70954;BME280;58618;47.490;8.736;2024-02-21T12:22:31;96854.00;;;12.21;75.85
70954;BME280;58618;47.490;8.736;2024-02-21T12:25:20;96839.94;;;12.33;74.41
70954;BME280;58618;47.490;8.736;2024-02-21T12:28:09;96840.34;;;12.21;71.56
70954;BME280;58618;47.490;8.736;2024-02-21T12:30:58;96848.22;;;12.35;77.16
70954;BME280;58618;47.490;8.736;2024-02-21T12:33:45;96837.63;;;12.55;71.61
70954;BME280;58618;47.490;8.736;2024-02-21T12:36:33;96839.84;;;12.43;73.61
70954;BME280;58618;47.490;8.736;2024-02-21T12:39:20;96824.47;;;12.27;74.30
70954;BME280;58618;47.490;8.736;2024-02-21T12:42:08;96818.47;;;12.32;75.58
70954;BME280;58618;47.490;8.736;2024-02-21T12:44:57;96817.16;;;12.35;72.80
70954;BME280;58618;47.490;8.736;2024-02-21T12:47:46;96807.81;;;12.39;70.87
70954;BME280;58618;47.490;8.736;2024-02-21T12:50:33;96806.66;;;12.50;70.52
70954;BME280;58618;47.490;8.736;2024-02-21T12:53:21;96801.84;;;12.62;72.05
70954;BME280;58618;47.490;8.736;2024-02-21T12:56:09;96789.75;;;12.76;69.27
70954;BME280;58618;47.490;8.736;2024-02-21T12:58:56;96786.75;;;12.69;72.75
70954;BME280;58618;47.490;8.736;2024-02-21T13:01:44;96780.31;;;12.85;64.16
70954;BME280;58618;47.490;8.736;2024-02-21T13:04:32;96765.78;;;12.04;64.23
70954;BME280;58618;47.490;8.736;2024-02-21T13:07:20;96756.25;;;12.66;66.63
70954;BME280;58618;47.490;8.736;2024-02-21T13:10:07;96745.63;;;12.67;64.63
70954;BME280;58618;47.490;8.736;2024-02-21T13:12:55;96747.00;;;12.60;67.72
70954;BME280;58618;47.490;8.736;2024-02-21T13:15:42;96737.63;;;12.64;67.57
70954;BME280;58618;47.490;8.736;2024-02-21T13:18:30;96726.88;;;12.57;64.80
70954;BME280;58618;47.490;8.736;2024-02-21T13:21:20;96723.50;;;12.75;68.57
70954;BME280;58618;47.490;8.736;2024-02-21T13:24:07;96717.38;;;12.71;61.86
70954;BME280;58618;47.490;8.736;2024-02-21T13:26:55;96714.22;;;12.55;66.76
70954;BME280;58618;47.490;8.736;2024-02-21T13:29:42;96692.66;;;12.60;65.03
70954;BME280;58618;47.490;8.736;2024-02-21T13:32:31;96698.06;;;12.82;64.85
70954;BME280;58618;47.490;8.736;2024-02-21T13:35:19;96687.50;;;12.79;67.71
70954;BME280;58618;47.490;8.736;2024-02-21T13:38:08;96675.94;;;12.71;66.46
70954;BME280;58618;47.490;8.736;2024-02-21T13:40:56;96672.88;;;12.69;67.75
70954;BME280;58618;47.490;8.736;2024-02-21T13:43:43;96668.69;;;12.73;67.93
70954;BME280;58618;47.490;8.736;2024-02-21T13:46:32;96653.78;;;12.65;64.40
70954;BME280;58618;47.490;8.736;2024-02-21T13:49:19;96651.13;;;12.70;64.45
70954;BME280;58618;47.490;8.736;2024-02-21T13:52:07;96639.88;;;12.61;69.14
70954;BME280;58618;47.490;8.736;2024-02-21T13:54:57;96646.63;;;12.76;65.50
70954;BME280;58618;47.490;8.736;2024-02-21T13:57:45;96633.50;;;12.53;70.09
70954;BME280;58618;47.490;8.736;2024-02-21T14:00:32;96641.63;;;12.47;67.49
70954;BME280;58618;47.490;8.736;2024-02-21T14:03:22;96630.78;;;12.45;70.14
70954;BME280;58618;47.490;8.736;2024-02-21T14:06:11;96632.69;;;12.58;71.60
70954;BME280;58618;47.490;8.736;2024-02-21T14:08:59;96630.09;;;12.58;70.06
70954;BME280;58618;47.490;8.736;2024-02-21T14:11:48;96630.91;;;12.72;69.82
70954;BME280;58618;47.490;8.736;2024-02-21T14:14:35;96623.06;;;12.77;69.16
70954;BME280;58618;47.490;8.736;2024-02-21T14:17:22;96620.56;;;12.72;67.98
70954;BME280;58618;47.490;8.736;2024-02-21T14:20:10;96616.34;;;12.76;70.96
70954;BME280;58618;47.490;8.736;2024-02-21T14:23:00;96609.47;;;12.53;69.19
70954;BME280;58618;47.490;8.736;2024-02-21T14:25:47;96597.50;;;12.57;68.54
70954;BME280;58618;47.490;8.736;2024-02-21T14:28:35;96599.78;;;12.58;67.83
70954;BME280;58618;47.490;8.736;2024-02-21T14:31:23;96592.16;;;12.67;68.19
70954;BME280;58618;47.490;8.736;2024-02-21T14:34:11;96582.81;;;12.52;66.40
70954;BME280;58618;47.490;8.736;2024-02-21T14:36:58;96581.00;;;12.53;68.98
70954;BME280;58618;47.490;8.736;2024-02-21T14:39:45;96576.13;;;12.33;67.57
70954;BME280;58618;47.490;8.736;2024-02-21T14:42:33;96580.09;;;12.44;69.06
70954;BME280;58618;47.490;8.736;2024-02-21T14:45:22;96573.25;;;12.53;67.54
70954;BME280;58618;47.490;8.736;2024-02-21T14:48:10;96574.38;;;12.47;67.87